sensor_id;sensor_type;location;lat;lon;timestamp;P1;durP1;ratioP1;P2;durP2;ratioP2
61899;SDS011;47853;55.890;37.664;2023-08-06T00:00:21;17.30;;;9.23;;
61899;SDS011;47853;55.890;37.664;2023-08-06T00:02:47;19.58;;;9.77;;
61899;SDS011;47853;55.890;37.664;2023-08-06T00:05:13;15.35;;;9.20;;
61899;SDS011;47853;55.890;37.664;2023-08-06T00:07:38;16.65;;;10.57;;
61899;SDS011;47853;55.890;37.664;2023-08-06T00:10:04;21.40;;;9.50;;
61899;SDS011;47853;55.890;37.664;2023-08-06T00:12:29;17.85;;;9.45;;
61899;SDS011;47853;55.890;37.664;2023-08-06T00:14:55;20.52;;;10.45;;
61899;SDS011;47853;55.890;37.664;2023-08-06T00:17:20;15.02;;;9.48;;
61899;SDS011;47853;55.890;37.664;2023-08-06T00:19:45;16.13;;;9.40;;
61899;SDS011;47853;55.890;37.664;2023-08-06T00:22:11;13.00;;;8.68;;
61899;SDS011;47853;55.890;37.664;2023-08-06T00:24:36;18.48;;;9.90;;
61899;SDS011;47853;55.890;37.664;2023-08-06T00:27:02;15.43;;;8.82;;
61899;SDS011;47853;55.890;37.664;2023-08-06T00:29:28;16.70;;;8.57;;
61899;SDS011;47853;55.890;37.664;2023-08-06T00:31:53;21.90;;;10.02;;
61899;SDS011;47853;55.890;37.664;2023-08-06T00:34:18;15.52;;;9.43;;
61899;SDS011;47853;55.890;37.664;2023-08-06T00:36:44;17.52;;;9.02;;
61899;SDS011;47853;55.890;37.664;2023-08-06T00:39:09;14.80;;;9.27;;
61899;SDS011;47853;55.890;37.664;2023-08-06T00:41:34;13.35;;;8.38;;
61899;SDS011;47853;55.890;37.664;2023-08-06T00:44:00;14.57;;;8.65;;
61899;SDS011;47853;55.890;37.664;2023-08-06T00:46:26;19.30;;;9.07;;
61899;SDS011;47853;55.890;37.664;2023-08-06T00:48:51;19.40;;;10.02;;
61899;SDS011;47853;55.890;37.664;2023-08-06T00:51:17;20.25;;;9.55;;
61899;SDS011;47853;55.890;37.664;2023-08-06T00:53:42;11.60;;;8.38;;
61899;SDS011;47853;55.890;37.664;2023-08-06T00:56:08;24.67;;;9.35;;
61899;SDS011;47853;55.890;37.664;2023-08-06T00:58:34;20.88;;;9.93;;
61899;SDS011;47853;55.890;37.664;2023-08-06T01:01:01;16.35;;;9.32;;
61899;SDS011;47853;55.890;37.664;2023-08-06T01:03:26;12.88;;;8.25;;
61899;SDS011;47853;55.890;37.664;2023-08-06T01:05:52;17.38;;;8.75;;
61899;SDS011;47853;55.890;37.664;2023-08-06T01:16:07;16.08;;;8.70;;
61899;SDS011;47853;55.890;37.664;2023-08-06T01:18:37;16.05;;;10.63;;
61899;SDS011;47853;55.890;37.664;2023-08-06T01:21:04;17.45;;;10.50;;
61899;SDS011;47853;55.890;37.664;2023-08-06T01:23:29;13.20;;;8.23;;
61899;SDS011;47853;55.890;37.664;2023-08-06T01:31:26;18.20;;;10.18;;
61899;SDS011;47853;55.890;37.664;2023-08-06T01:34:00;17.52;;;10.45;;
61899;SDS011;47853;55.890;37.664;2023-08-06T01:36:28;16.70;;;9.63;;
61899;SDS011;47853;55.890;37.664;2023-08-06T01:38:53;23.88;;;9.45;;
61899;SDS011;47853;55.890;37.664;2023-08-06T01:41:19;15.70;;;9.50;;
61899;SDS011;47853;55.890;37.664;2023-08-06T01:43:44;18.15;;;9.65;;
61899;SDS011;47853;55.890;37.664;2023-08-06T01:46:10;22.10;;;8.35;;
61899;SDS011;47853;55.890;37.664;2023-08-06T01:48:35;14.68;;;8.48;;
61899;SDS011;47853;55.890;37.664;2023-08-06T01:51:01;18.67;;;10.25;;
61899;SDS011;47853;55.890;37.664;2023-08-06T01:53:28;17.25;;;8.57;;
61899;SDS011;47853;55.890;37.664;2023-08-06T01:55:53;23.50;;;8.85;;
61899;SDS011;47853;55.890;37.664;2023-08-06T01:58:19;12.30;;;8.85;;
61899;SDS011;47853;55.890;37.664;2023-08-06T02:00:44;15.63;;;11.32;;
61899;SDS011;47853;55.890;37.664;2023-08-06T02:03:09;16.25;;;10.50;;
61899;SDS011;47853;55.890;37.664;2023-08-06T02:05:35;17.40;;;10.15;;
61899;SDS011;47853;55.890;37.664;2023-08-06T02:08:00;21.27;;;11.02;;
61899;SDS011;47853;55.890;37.664;2023-08-06T02:10:25;20.17;;;11.60;;
61899;SDS011;47853;55.890;37.664;2023-08-06T02:12:51;16.98;;;11.57;;
61899;SDS011;47853;55.890;37.664;2023-08-06T02:15:16;17.35;;;11.70;;
61899;SDS011;47853;55.890;37.664;2023-08-06T02:17:41;21.08;;;11.13;;
61899;SDS011;47853;55.890;37.664;2023-08-06T02:20:07;18.83;;;10.68;;
61899;SDS011;47853;55.890;37.664;2023-08-06T02:22:32;20.10;;;11.35;;
61899;SDS011;47853;55.890;37.664;2023-08-06T02:24:58;20.95;;;11.85;;
61899;SDS011;47853;55.890;37.664;2023-08-06T02:27:23;18.15;;;11.60;;
61899;SDS011;47853;55.890;37.664;2023-08-06T02:29:48;19.80;;;11.52;;
61899;SDS011;47853;55.890;37.664;2023-08-06T02:32:14;17.65;;;11.82;;
61899;SDS011;47853;55.890;37.664;2023-08-06T02:34:39;17.83;;;9.55;;
61899;SDS011;47853;55.890;37.664;2023-08-06T02:37:04;19.23;;;10.95;;
61899;SDS011;47853;55.890;37.664;2023-08-06T02:39:30;16.02;;;11.13;;
61899;SDS011;47853;55.890;37.664;2023-08-06T02:41:55;14.63;;;10.48;;
61899;SDS011;47853;55.890;37.664;2023-08-06T02:44:21;16.00;;;11.30;;
61899;SDS011;47853;55.890;37.664;2023-08-06T02:46:46;20.92;;;11.43;;
61899;SDS011;47853;55.890;37.664;2023-08-06T02:49:11;17.70;;;10.98;;
61899;SDS011;47853;55.890;37.664;2023-08-06T02:51:37;16.92;;;11.15;;
61899;SDS011;47853;55.890;37.664;2023-08-06T02:54:02;19.17;;;11.48;;
61899;SDS011;47853;55.890;37.664;2023-08-06T02:56:27;18.45;;;10.63;;
61899;SDS011;47853;55.890;37.664;2023-08-06T02:58:53;17.25;;;11.20;;
61899;SDS011;47853;55.890;37.664;2023-08-06T03:01:18;14.77;;;10.82;;
61899;SDS011;47853;55.890;37.664;2023-08-06T03:03:43;15.95;;;10.55;;
61899;SDS011;47853;55.890;37.664;2023-08-06T03:06:08;21.75;;;10.68;;
61899;SDS011;47853;55.890;37.664;2023-08-06T03:08:34;17.95;;;11.02;;
61899;SDS011;47853;55.890;37.664;2023-08-06T03:10:59;15.18;;;10.25;;
61899;SDS011;47853;55.890;37.664;2023-08-06T03:13:25;17.85;;;11.60;;
61899;SDS011;47853;55.890;37.664;2023-08-06T03:18:22;15.80;;;11.07;;
61899;SDS011;47853;55.890;37.664;2023-08-06T03:20:48;18.40;;;10.07;;
61899;SDS011;47853;55.890;37.664;2023-08-06T03:23:14;13.88;;;10.25;;
61899;SDS011;47853;55.890;37.664;2023-08-06T03:25:39;17.77;;;10.60;;
61899;SDS011;47853;55.890;37.664;2023-08-06T03:28:04;19.98;;;11.25;;
61899;SDS011;47853;55.890;37.664;2023-08-06T03:30:30;19.25;;;10.60;;
61899;SDS011;47853;55.890;37.664;2023-08-06T03:32:55;14.82;;;9.70;;
61899;SDS011;47853;55.890;37.664;2023-08-06T03:35:20;20.88;;;11.85;;
61899;SDS011;47853;55.890;37.664;2023-08-06T03:37:46;17.40;;;10.27;;
61899;SDS011;47853;55.890;37.664;2023-08-06T03:40:11;16.38;;;9.80;;
61899;SDS011;47853;55.890;37.664;2023-08-06T03:42:37;14.52;;;10.02;;
61899;SDS011;47853;55.890;37.664;2023-08-06T03:45:02;15.13;;;10.63;;
61899;SDS011;47853;55.890;37.664;2023-08-06T03:47:28;16.02;;;10.85;;
61899;SDS011;47853;55.890;37.664;2023-08-06T03:49:53;13.57;;;9.95;;
61899;SDS011;47853;55.890;37.664;2023-08-06T03:52:18;18.25;;;10.45;;
61899;SDS011;47853;55.890;37.664;2023-08-06T03:54:43;14.93;;;10.95;;
61899;SDS011;47853;55.890;37.664;2023-08-06T03:57:09;13.50;;;9.45;;
61899;SDS011;47853;55.890;37.664;2023-08-06T03:59:34;14.23;;;10.43;;
61899;SDS011;47853;55.890;37.664;2023-08-06T04:02:00;25.23;;;10.40;;
61899;SDS011;47853;55.890;37.664;2023-08-06T04:04:25;18.95;;;10.75;;
61899;SDS011;47853;55.890;37.664;2023-08-06T04:06:50;17.98;;;10.25;;
61899;SDS011;47853;55.890;37.664;2023-08-06T04:09:16;17.45;;;11.13;;
61899;SDS011;47853;55.890;37.664;2023-08-06T04:11:41;16.10;;;10.98;;
61899;SDS011;47853;55.890;37.664;2023-08-06T04:14:06;16.55;;;9.85;;
61899;SDS011;47853;55.890;37.664;2023-08-06T04:16:32;21.42;;;10.73;;
61899;SDS011;47853;55.890;37.664;2023-08-06T04:18:57;21.63;;;11.05;;
61899;SDS011;47853;55.890;37.664;2023-08-06T04:21:22;16.35;;;9.93;;
61899;SDS011;47853;55.890;37.664;2023-08-06T04:23:47;14.98;;;9.38;;
61899;SDS011;47853;55.890;37.664;2023-08-06T04:26:13;14.10;;;9.13;;
61899;SDS011;47853;55.890;37.664;2023-08-06T04:28:38;19.42;;;10.43;;
61899;SDS011;47853;55.890;37.664;2023-08-06T04:31:03;16.80;;;9.77;;
61899;SDS011;47853;55.890;37.664;2023-08-06T04:33:29;16.00;;;8.48;;
61899;SDS011;47853;55.890;37.664;2023-08-06T04:35:54;23.35;;;16.88;;
61899;SDS011;47853;55.890;37.664;2023-08-06T04:38:20;15.80;;;8.20;;
61899;SDS011;47853;55.890;37.664;2023-08-06T04:40:45;15.63;;;9.88;;
61899;SDS011;47853;55.890;37.664;2023-08-06T04:43:10;20.42;;;9.77;;
61899;SDS011;47853;55.890;37.664;2023-08-06T04:45:36;20.48;;;10.18;;
61899;SDS011;47853;55.890;37.664;2023-08-06T04:48:01;20.38;;;9.85;;
61899;SDS011;47853;55.890;37.664;2023-08-06T04:50:26;15.43;;;8.80;;
61899;SDS011;47853;55.890;37.664;2023-08-06T04:52:52;16.98;;;8.85;;
61899;SDS011;47853;55.890;37.664;2023-08-06T04:55:17;16.77;;;8.80;;
61899;SDS011;47853;55.890;37.664;2023-08-06T04:57:42;17.60;;;8.48;;
61899;SDS011;47853;55.890;37.664;2023-08-06T05:00:08;15.52;;;9.02;;
61899;SDS011;47853;55.890;37.664;2023-08-06T05:02:33;15.93;;;8.75;;
61899;SDS011;47853;55.890;37.664;2023-08-06T05:04:59;17.48;;;8.65;;
61899;SDS011;47853;55.890;37.664;2023-08-06T05:07:24;14.95;;;8.50;;
61899;SDS011;47853;55.890;37.664;2023-08-06T05:09:49;15.43;;;8.25;;
61899;SDS011;47853;55.890;37.664;2023-08-06T05:12:15;15.50;;;8.32;;
61899;SDS011;47853;55.890;37.664;2023-08-06T05:14:40;14.88;;;7.78;;
61899;SDS011;47853;55.890;37.664;2023-08-06T05:17:05;20.35;;;15.73;;
61899;SDS011;47853;55.890;37.664;2023-08-06T05:19:33;14.23;;;7.90;;
61899;SDS011;47853;55.890;37.664;2023-08-06T05:21:59;12.90;;;10.00;;
61899;SDS011;47853;55.890;37.664;2023-08-06T05:24:24;17.17;;;9.45;;
61899;SDS011;47853;55.890;37.664;2023-08-06T05:26:49;13.63;;;7.60;;
61899;SDS011;47853;55.890;37.664;2023-08-06T05:29:16;11.77;;;7.15;;
61899;SDS011;47853;55.890;37.664;2023-08-06T05:31:41;15.25;;;7.63;;
61899;SDS011;47853;55.890;37.664;2023-08-06T05:34:07;14.35;;;7.38;;
61899;SDS011;47853;55.890;37.664;2023-08-06T05:36:32;16.42;;;7.28;;
61899;SDS011;47853;55.890;37.664;2023-08-06T05:38:58;18.00;;;11.50;;
61899;SDS011;47853;55.890;37.664;2023-08-06T05:41:23;12.93;;;8.02;;
61899;SDS011;47853;55.890;37.664;2023-08-06T05:43:48;12.23;;;6.32;;
61899;SDS011;47853;55.890;37.664;2023-08-06T05:46:13;20.75;;;9.38;;
61899;SDS011;47853;55.890;37.664;2023-08-06T05:48:39;11.07;;;5.90;;
61899;SDS011;47853;55.890;37.664;2023-08-06T05:51:04;10.07;;;5.90;;
61899;SDS011;47853;55.890;37.664;2023-08-06T05:53:29;14.38;;;7.20;;
61899;SDS011;47853;55.890;37.664;2023-08-06T05:55:55;12.70;;;6.40;;
61899;SDS011;47853;55.890;37.664;2023-08-06T05:58:21;19.50;;;6.38;;
61899;SDS011;47853;55.890;37.664;2023-08-06T06:00:46;12.07;;;6.30;;
61899;SDS011;47853;55.890;37.664;2023-08-06T06:03:11;9.27;;;5.30;;
61899;SDS011;47853;55.890;37.664;2023-08-06T06:05:39;11.57;;;9.27;;
61899;SDS011;47853;55.890;37.664;2023-08-06T06:08:08;12.52;;;6.88;;
61899;SDS011;47853;55.890;37.664;2023-08-06T06:10:33;9.77;;;5.95;;
61899;SDS011;47853;55.890;37.664;2023-08-06T06:12:58;11.68;;;5.07;;
61899;SDS011;47853;55.890;37.664;2023-08-06T06:15:24;12.15;;;5.35;;
61899;SDS011;47853;55.890;37.664;2023-08-06T06:17:49;10.07;;;5.00;;
61899;SDS011;47853;55.890;37.664;2023-08-06T06:20:14;8.82;;;4.63;;
61899;SDS011;47853;55.890;37.664;2023-08-06T06:22:40;11.40;;;5.80;;
61899;SDS011;47853;55.890;37.664;2023-08-06T06:25:05;11.15;;;5.40;;
61899;SDS011;47853;55.890;37.664;2023-08-06T06:27:31;8.50;;;4.70;;
61899;SDS011;47853;55.890;37.664;2023-08-06T06:29:56;11.43;;;5.25;;
61899;SDS011;47853;55.890;37.664;2023-08-06T06:32:21;7.20;;;5.03;;
61899;SDS011;47853;55.890;37.664;2023-08-06T06:34:47;16.23;;;11.30;;
61899;SDS011;47853;55.890;37.664;2023-08-06T06:37:12;14.95;;;4.30;;
61899;SDS011;47853;55.890;37.664;2023-08-06T06:39:38;10.95;;;4.60;;
61899;SDS011;47853;55.890;37.664;2023-08-06T06:42:04;12.10;;;5.43;;
61899;SDS011;47853;55.890;37.664;2023-08-06T06:44:29;8.05;;;4.05;;
61899;SDS011;47853;55.890;37.664;2023-08-06T06:46:55;14.73;;;5.05;;
61899;SDS011;47853;55.890;37.664;2023-08-06T06:49:20;11.95;;;4.80;;
61899;SDS011;47853;55.890;37.664;2023-08-06T06:51:45;9.18;;;4.70;;
61899;SDS011;47853;55.890;37.664;2023-08-06T06:54:11;11.10;;;4.00;;
61899;SDS011;47853;55.890;37.664;2023-08-06T06:56:36;10.85;;;4.40;;
61899;SDS011;47853;55.890;37.664;2023-08-06T06:59:01;13.02;;;3.60;;
61899;SDS011;47853;55.890;37.664;2023-08-06T07:01:27;9.15;;;3.83;;
61899;SDS011;47853;55.890;37.664;2023-08-06T07:03:53;17.45;;;4.32;;
61899;SDS011;47853;55.890;37.664;2023-08-06T07:06:18;12.65;;;4.43;;
61899;SDS011;47853;55.890;37.664;2023-08-06T07:08:44;7.65;;;3.83;;
61899;SDS011;47853;55.890;37.664;2023-08-06T07:11:09;11.70;;;3.80;;
61899;SDS011;47853;55.890;37.664;2023-08-06T07:13:35;13.00;;;3.80;;
61899;SDS011;47853;55.890;37.664;2023-08-06T07:16:00;10.60;;;4.07;;
61899;SDS011;47853;55.890;37.664;2023-08-06T07:18:26;10.45;;;3.50;;
61899;SDS011;47853;55.890;37.664;2023-08-06T07:20:51;8.48;;;3.75;;
61899;SDS011;47853;55.890;37.664;2023-08-06T07:23:19;9.98;;;3.83;;
61899;SDS011;47853;55.890;37.664;2023-08-06T07:25:46;8.02;;;4.35;;
61899;SDS011;47853;55.890;37.664;2023-08-06T07:28:12;10.80;;;4.45;;
61899;SDS011;47853;55.890;37.664;2023-08-06T07:30:38;12.05;;;4.22;;
61899;SDS011;47853;55.890;37.664;2023-08-06T07:33:05;11.00;;;4.40;;
61899;SDS011;47853;55.890;37.664;2023-08-06T07:35:30;8.48;;;4.40;;
61899;SDS011;47853;55.890;37.664;2023-08-06T07:37:55;11.02;;;4.10;;
61899;SDS011;47853;55.890;37.664;2023-08-06T07:40:21;15.20;;;4.30;;
61899;SDS011;47853;55.890;37.664;2023-08-06T07:42:46;10.20;;;3.50;;
61899;SDS011;47853;55.890;37.664;2023-08-06T07:45:11;9.60;;;3.45;;
61899;SDS011;47853;55.890;37.664;2023-08-06T07:47:37;10.68;;;3.35;;
61899;SDS011;47853;55.890;37.664;2023-08-06T07:50:02;8.68;;;3.80;;
61899;SDS011;47853;55.890;37.664;2023-08-06T07:52:28;13.00;;;5.20;;
61899;SDS011;47853;55.890;37.664;2023-08-06T07:54:53;8.27;;;4.03;;
61899;SDS011;47853;55.890;37.664;2023-08-06T07:57:18;9.88;;;4.10;;
61899;SDS011;47853;55.890;37.664;2023-08-06T07:59:44;6.15;;;3.10;;
61899;SDS011;47853;55.890;37.664;2023-08-06T08:02:09;10.63;;;3.53;;
61899;SDS011;47853;55.890;37.664;2023-08-06T08:04:34;8.88;;;3.28;;
61899;SDS011;47853;55.890;37.664;2023-08-06T08:07:00;5.97;;;3.17;;
61899;SDS011;47853;55.890;37.664;2023-08-06T08:09:25;7.85;;;3.70;;
61899;SDS011;47853;55.890;37.664;2023-08-06T08:11:50;8.93;;;3.97;;
61899;SDS011;47853;55.890;37.664;2023-08-06T08:14:16;7.15;;;3.47;;
61899;SDS011;47853;55.890;37.664;2023-08-06T08:16:41;15.35;;;3.88;;
61899;SDS011;47853;55.890;37.664;2023-08-06T08:19:06;13.40;;;4.65;;
61899;SDS011;47853;55.890;37.664;2023-08-06T08:21:32;7.57;;;4.00;;
61899;SDS011;47853;55.890;37.664;2023-08-06T08:23:59;8.95;;;3.67;;
61899;SDS011;47853;55.890;37.664;2023-08-06T08:26:25;11.30;;;3.80;;
61899;SDS011;47853;55.890;37.664;2023-08-06T08:28:50;14.32;;;6.47;;
61899;SDS011;47853;55.890;37.664;2023-08-06T08:31:15;12.50;;;3.88;;
61899;SDS011;47853;55.890;37.664;2023-08-06T08:33:41;10.27;;;3.65;;
61899;SDS011;47853;55.890;37.664;2023-08-06T08:36:06;6.07;;;3.97;;
61899;SDS011;47853;55.890;37.664;2023-08-06T08:38:31;12.77;;;4.32;;
61899;SDS011;47853;55.890;37.664;2023-08-06T08:40:57;9.73;;;4.50;;
61899;SDS011;47853;55.890;37.664;2023-08-06T08:43:22;10.95;;;3.95;;
61899;SDS011;47853;55.890;37.664;2023-08-06T08:45:52;13.85;;;4.35;;
61899;SDS011;47853;55.890;37.664;2023-08-06T08:48:18;7.15;;;3.70;;
61899;SDS011;47853;55.890;37.664;2023-08-06T08:50:44;12.98;;;4.03;;
61899;SDS011;47853;55.890;37.664;2023-08-06T08:53:11;8.02;;;4.03;;
61899;SDS011;47853;55.890;37.664;2023-08-06T08:55:39;10.55;;;3.97;;
61899;SDS011;47853;55.890;37.664;2023-08-06T08:58:05;17.77;;;6.53;;
61899;SDS011;47853;55.890;37.664;2023-08-06T09:00:30;5.85;;;4.03;;
61899;SDS011;47853;55.890;37.664;2023-08-06T09:02:56;9.70;;;4.10;;
61899;SDS011;47853;55.890;37.664;2023-08-06T09:05:23;6.38;;;3.72;;
61899;SDS011;47853;55.890;37.664;2023-08-06T09:07:53;11.95;;;3.75;;
61899;SDS011;47853;55.890;37.664;2023-08-06T09:10:20;3.85;;;3.13;;
61899;SDS011;47853;55.890;37.664;2023-08-06T09:12:45;8.15;;;3.72;;
61899;SDS011;47853;55.890;37.664;2023-08-06T09:15:13;9.05;;;3.53;;
61899;SDS011;47853;55.890;37.664;2023-08-06T09:17:39;8.30;;;3.60;;
61899;SDS011;47853;55.890;37.664;2023-08-06T09:20:13;4.15;;;3.13;;
61899;SDS011;47853;55.890;37.664;2023-08-06T09:22:39;7.63;;;3.85;;
61899;SDS011;47853;55.890;37.664;2023-08-06T09:25:06;4.70;;;3.70;;
61899;SDS011;47853;55.890;37.664;2023-08-06T09:27:32;5.60;;;3.63;;
61899;SDS011;47853;55.890;37.664;2023-08-06T09:29:57;8.70;;;3.83;;
61899;SDS011;47853;55.890;37.664;2023-08-06T09:32:22;5.28;;;3.40;;
61899;SDS011;47853;55.890;37.664;2023-08-06T09:34:55;6.90;;;3.67;;
61899;SDS011;47853;55.890;37.664;2023-08-06T09:37:21;6.15;;;4.03;;
61899;SDS011;47853;55.890;37.664;2023-08-06T09:39:46;6.50;;;3.65;;
61899;SDS011;47853;55.890;37.664;2023-08-06T09:42:14;7.25;;;4.60;;
61899;SDS011;47853;55.890;37.664;2023-08-06T09:44:40;9.07;;;3.53;;
61899;SDS011;47853;55.890;37.664;2023-08-06T09:47:05;9.80;;;3.92;;
61899;SDS011;47853;55.890;37.664;2023-08-06T09:51:59;11.73;;;5.47;;
61899;SDS011;47853;55.890;37.664;2023-08-06T09:54:25;7.82;;;4.05;;
61899;SDS011;47853;55.890;37.664;2023-08-06T09:56:52;8.52;;;4.55;;
61899;SDS011;47853;55.890;37.664;2023-08-06T09:59:18;10.57;;;5.45;;
61899;SDS011;47853;55.890;37.664;2023-08-06T10:01:43;6.78;;;4.43;;
61899;SDS011;47853;55.890;37.664;2023-08-06T10:04:11;5.70;;;4.13;;
61899;SDS011;47853;55.890;37.664;2023-08-06T10:06:39;6.93;;;4.32;;
61899;SDS011;47853;55.890;37.664;2023-08-06T10:09:04;5.25;;;4.13;;
61899;SDS011;47853;55.890;37.664;2023-08-06T10:11:30;10.85;;;5.45;;
61899;SDS011;47853;55.890;37.664;2023-08-06T10:14:04;8.15;;;5.25;;
61899;SDS011;47853;55.890;37.664;2023-08-06T10:16:35;13.48;;;4.50;;
61899;SDS011;47853;55.890;37.664;2023-08-06T10:19:02;14.57;;;4.90;;
61899;SDS011;47853;55.890;37.664;2023-08-06T10:21:30;9.77;;;4.78;;
61899;SDS011;47853;55.890;37.664;2023-08-06T10:23:56;4.90;;;4.40;;
61899;SDS011;47853;55.890;37.664;2023-08-06T10:26:25;10.23;;;4.93;;
61899;SDS011;47853;55.890;37.664;2023-08-06T10:28:51;9.23;;;4.80;;
61899;SDS011;47853;55.890;37.664;2023-08-06T10:31:17;8.88;;;4.97;;
61899;SDS011;47853;55.890;37.664;2023-08-06T10:33:43;20.77;;;4.80;;
61899;SDS011;47853;55.890;37.664;2023-08-06T10:36:12;15.32;;;4.57;;
61899;SDS011;47853;55.890;37.664;2023-08-06T10:38:45;10.35;;;5.05;;
61899;SDS011;47853;55.890;37.664;2023-08-06T10:44:09;11.45;;;4.43;;
61899;SDS011;47853;55.890;37.664;2023-08-06T10:46:36;7.95;;;4.10;;
61899;SDS011;47853;55.890;37.664;2023-08-06T10:49:02;12.50;;;4.88;;
61899;SDS011;47853;55.890;37.664;2023-08-06T10:51:28;10.65;;;4.60;;
61899;SDS011;47853;55.890;37.664;2023-08-06T10:53:54;10.35;;;4.07;;
61899;SDS011;47853;55.890;37.664;2023-08-06T10:56:20;13.63;;;5.15;;
61899;SDS011;47853;55.890;37.664;2023-08-06T10:58:46;11.10;;;5.03;;
61899;SDS011;47853;55.890;37.664;2023-08-06T11:01:12;9.75;;;4.57;;
61899;SDS011;47853;55.890;37.664;2023-08-06T11:03:38;10.63;;;5.10;;
61899;SDS011;47853;55.890;37.664;2023-08-06T11:06:04;8.50;;;4.97;;
61899;SDS011;47853;55.890;37.664;2023-08-06T11:08:38;8.73;;;4.75;;
61899;SDS011;47853;55.890;37.664;2023-08-06T11:11:11;7.20;;;4.60;;
61899;SDS011;47853;55.890;37.664;2023-08-06T11:16:22;6.35;;;4.80;;
61899;SDS011;47853;55.890;37.664;2023-08-06T11:18:48;13.18;;;4.80;;
61899;SDS011;47853;55.890;37.664;2023-08-06T11:21:14;6.68;;;4.88;;
61899;SDS011;47853;55.890;37.664;2023-08-06T11:23:43;9.13;;;4.50;;
61899;SDS011;47853;55.890;37.664;2023-08-06T11:26:08;11.57;;;4.72;;
61899;SDS011;47853;55.890;37.664;2023-08-06T11:28:33;8.27;;;4.28;;
61899;SDS011;47853;55.890;37.664;2023-08-06T11:30:59;8.80;;;4.80;;
61899;SDS011;47853;55.890;37.664;2023-08-06T11:33:27;7.28;;;4.40;;
61899;SDS011;47853;55.890;37.664;2023-08-06T11:35:56;8.40;;;4.60;;
61899;SDS011;47853;55.890;37.664;2023-08-06T11:38:24;8.43;;;5.07;;
61899;SDS011;47853;55.890;37.664;2023-08-06T11:40:50;15.25;;;5.25;;
61899;SDS011;47853;55.890;37.664;2023-08-06T11:43:17;9.50;;;4.70;;
61899;SDS011;47853;55.890;37.664;2023-08-06T11:45:43;6.25;;;5.00;;
61899;SDS011;47853;55.890;37.664;2023-08-06T11:48:09;6.75;;;4.22;;
61899;SDS011;47853;55.890;37.664;2023-08-06T11:50:37;8.55;;;4.90;;
61899;SDS011;47853;55.890;37.664;2023-08-06T11:53:03;9.70;;;4.30;;
61899;SDS011;47853;55.890;37.664;2023-08-06T11:55:28;8.48;;;4.97;;
61899;SDS011;47853;55.890;37.664;2023-08-06T11:57:54;11.93;;;5.90;;
61899;SDS011;47853;55.890;37.664;2023-08-06T12:00:22;7.05;;;4.22;;
61899;SDS011;47853;55.890;37.664;2023-08-06T12:02:49;7.07;;;5.03;;
61899;SDS011;47853;55.890;37.664;2023-08-06T12:07:50;9.33;;;4.17;;
61899;SDS011;47853;55.890;37.664;2023-08-06T12:10:18;10.45;;;4.65;;
61899;SDS011;47853;55.890;37.664;2023-08-06T12:12:45;8.57;;;4.20;;
61899;SDS011;47853;55.890;37.664;2023-08-06T12:15:10;7.25;;;4.65;;
61899;SDS011;47853;55.890;37.664;2023-08-06T12:17:36;18.70;;;4.70;;
61899;SDS011;47853;55.890;37.664;2023-08-06T12:20:02;8.60;;;6.38;;
61899;SDS011;47853;55.890;37.664;2023-08-06T12:22:29;6.88;;;5.45;;
61899;SDS011;47853;55.890;37.664;2023-08-06T12:24:54;10.18;;;4.82;;
61899;SDS011;47853;55.890;37.664;2023-08-06T12:27:19;13.35;;;4.63;;
61899;SDS011;47853;55.890;37.664;2023-08-06T12:29:47;9.15;;;4.40;;
61899;SDS011;47853;55.890;37.664;2023-08-06T12:32:13;7.93;;;4.40;;
61899;SDS011;47853;55.890;37.664;2023-08-06T12:34:39;11.93;;;4.50;;
61899;SDS011;47853;55.890;37.664;2023-08-06T12:37:05;12.07;;;4.88;;
61899;SDS011;47853;55.890;37.664;2023-08-06T12:39:31;10.45;;;4.50;;
61899;SDS011;47853;55.890;37.664;2023-08-06T12:41:56;10.73;;;4.50;;
61899;SDS011;47853;55.890;37.664;2023-08-06T12:44:22;8.52;;;4.25;;
61899;SDS011;47853;55.890;37.664;2023-08-06T12:46:51;10.18;;;4.85;;
61899;SDS011;47853;55.890;37.664;2023-08-06T12:49:17;8.30;;;4.05;;
61899;SDS011;47853;55.890;37.664;2023-08-06T12:51:43;9.82;;;4.10;;
61899;SDS011;47853;55.890;37.664;2023-08-06T12:54:11;14.10;;;4.70;;
61899;SDS011;47853;55.890;37.664;2023-08-06T12:56:39;6.05;;;4.30;;
61899;SDS011;47853;55.890;37.664;2023-08-06T12:59:04;9.00;;;4.18;;
61899;SDS011;47853;55.890;37.664;2023-08-06T13:01:30;7.50;;;4.05;;
61899;SDS011;47853;55.890;37.664;2023-08-06T13:03:55;12.82;;;4.38;;
61899;SDS011;47853;55.890;37.664;2023-08-06T13:06:20;11.30;;;4.47;;
61899;SDS011;47853;55.890;37.664;2023-08-06T13:08:46;10.82;;;4.50;;
61899;SDS011;47853;55.890;37.664;2023-08-06T13:11:11;10.90;;;4.35;;
61899;SDS011;47853;55.890;37.664;2023-08-06T13:13:36;15.48;;;4.90;;
61899;SDS011;47853;55.890;37.664;2023-08-06T13:16:02;12.52;;;4.97;;
61899;SDS011;47853;55.890;37.664;2023-08-06T13:18:27;13.45;;;4.25;;
61899;SDS011;47853;55.890;37.664;2023-08-06T13:20:53;9.15;;;3.40;;
61899;SDS011;47853;55.890;37.664;2023-08-06T13:23:18;12.35;;;3.70;;
61899;SDS011;47853;55.890;37.664;2023-08-06T13:25:44;11.77;;;3.95;;
61899;SDS011;47853;55.890;37.664;2023-08-06T13:28:09;8.40;;;4.30;;
61899;SDS011;47853;55.890;37.664;2023-08-06T13:30:35;9.23;;;4.65;;
61899;SDS011;47853;55.890;37.664;2023-08-06T13:33:01;11.68;;;4.53;;
61899;SDS011;47853;55.890;37.664;2023-08-06T13:35:29;6.97;;;3.65;;
61899;SDS011;47853;55.890;37.664;2023-08-06T13:37:55;8.07;;;4.00;;
61899;SDS011;47853;55.890;37.664;2023-08-06T13:40:20;8.63;;;4.25;;
61899;SDS011;47853;55.890;37.664;2023-08-06T13:42:45;10.38;;;3.88;;
61899;SDS011;47853;55.890;37.664;2023-08-06T13:45:11;12.00;;;3.97;;
61899;SDS011;47853;55.890;37.664;2023-08-06T13:47:36;5.68;;;3.75;;
61899;SDS011;47853;55.890;37.664;2023-08-06T13:50:01;6.18;;;4.32;;
61899;SDS011;47853;55.890;37.664;2023-08-06T13:52:27;16.52;;;4.57;;
61899;SDS011;47853;55.890;37.664;2023-08-06T13:54:52;13.50;;;4.45;;
61899;SDS011;47853;55.890;37.664;2023-08-06T13:57:17;7.18;;;4.10;;
61899;SDS011;47853;55.890;37.664;2023-08-06T13:59:43;5.82;;;4.13;;
61899;SDS011;47853;55.890;37.664;2023-08-06T14:02:08;9.38;;;3.92;;
61899;SDS011;47853;55.890;37.664;2023-08-06T14:04:34;7.97;;;4.30;;
61899;SDS011;47853;55.890;37.664;2023-08-06T14:06:59;7.20;;;3.97;;
61899;SDS011;47853;55.890;37.664;2023-08-06T14:09:24;8.00;;;4.20;;
61899;SDS011;47853;55.890;37.664;2023-08-06T14:11:50;6.65;;;4.03;;
61899;SDS011;47853;55.890;37.664;2023-08-06T14:14:15;14.55;;;4.30;;
61899;SDS011;47853;55.890;37.664;2023-08-06T14:16:40;6.72;;;4.40;;
61899;SDS011;47853;55.890;37.664;2023-08-06T14:19:06;8.32;;;4.20;;
61899;SDS011;47853;55.890;37.664;2023-08-06T14:21:31;7.88;;;4.70;;
61899;SDS011;47853;55.890;37.664;2023-08-06T14:23:56;10.98;;;4.78;;
61899;SDS011;47853;55.890;37.664;2023-08-06T14:26:22;6.97;;;4.55;;
61899;SDS011;47853;55.890;37.664;2023-08-06T14:28:47;9.55;;;4.15;;
61899;SDS011;47853;55.890;37.664;2023-08-06T14:31:13;8.55;;;4.13;;
61899;SDS011;47853;55.890;37.664;2023-08-06T14:33:38;8.10;;;4.28;;
61899;SDS011;47853;55.890;37.664;2023-08-06T14:36:03;7.35;;;4.25;;
61899;SDS011;47853;55.890;37.664;2023-08-06T14:38:29;7.13;;;4.45;;
61899;SDS011;47853;55.890;37.664;2023-08-06T14:40:57;6.32;;;4.30;;